Time;durP1;ratioP1;P1;durP2;ratioP2;P2;SDS_P1;SDS_P2;PMS_P1;PMS_P2;Temp;Humidity;BMP_temperature;BMP_pressure;BME280_temperature;BME280_humidity;BME280_pressure;Samples;Min_cycle;Max_cycle;Signal;HPM_P1;HPM_P2
2024/03/09 00:00:31;;;;;;;20.17;11.30;;;2.00;99.90;;;;;;4965448;28;20053;-79
2024/03/09 00:02:59;;;;;;;16.33;10.30;;;2.00;99.90;;;;;;4948300;28;20280;-81
2024/03/09 00:05:26;;;;;;;19.90;10.52;;;2.00;99.90;;;;;;4935492;28;20490;-78
2024/03/09 00:07:56;;;;;;;19.30;10.40;;;1.90;99.90;;;;;;4939894;28;20025;-80
2024/03/09 00:10:22;;;;;;;17.08;11.35;;;1.90;99.90;;;;;;4958463;28;20049;-80
2024/03/09 00:12:49;;;;;;;22.25;11.13;;;1.90;99.90;;;;;;4969806;28;20030;-80
2024/03/09 00:15:15;;;;;;;18.98;11.10;;;1.90;99.90;;;;;;4928314;28;20621;-79
2024/03/09 00:17:47;;;;;;;17.85;11.40;;;1.90;99.90;;;;;;4903295;28;21382;-80
2024/03/09 00:20:15;;;;;;;20.77;11.10;;;2.00;99.90;;;;;;4967269;28;20022;-79
2024/03/09 00:22:43;;;;;;;17.95;10.60;;;1.90;99.90;;;;;;4943741;28;20060;-78
2024/03/09 00:25:09;;;;;;;19.35;10.27;;;1.90;99.90;;;;;;4954569;28;20037;-79
2024/03/09 00:27:35;;;;;;;17.92;10.90;;;1.80;99.90;;;;;;4963408;28;20454;-80
2024/03/09 00:30:02;;;;;;;20.42;10.88;;;1.80;99.90;;;;;;4947115;28;20435;-81
2024/03/09 00:32:29;;;;;;;16.42;10.85;;;1.80;99.90;;;;;;4916145;28;20084;-80
2024/03/09 00:34:55;;;;;;;15.27;10.90;;;1.80;99.90;;;;;;4979809;28;20621;-80
2024/03/09 00:37:20;;;;;;;14.10;10.00;;;1.70;99.90;;;;;;4958697;28;20030;-81
2024/03/09 00:39:47;;;;;;;16.90;10.98;;;1.70;99.90;;;;;;4943598;28;20029;-80
2024/03/09 00:42:18;;;;;;;19.52;11.18;;;1.70;99.90;;;;;;4941687;28;20083;-80
2024/03/09 00:44:43;;;;;;;18.42;11.65;;;1.70;99.90;;;;;;4932627;28;20072;-80
2024/03/09 00:47:09;;;;;;;21.02;11.52;;;1.70;99.90;;;;;;4959494;28;20057;-81
2024/03/09 00:49:35;;;;;;;16.35;11.15;;;1.70;99.90;;;;;;4956687;28;20037;-80
2024/03/09 00:52:06;;;;;;;17.95;11.00;;;1.70;99.90;;;;;;4966476;28;20033;-78
2024/03/09 00:54:32;;;;;;;21.05;11.52;;;1.60;99.90;;;;;;4957874;28;20038;-81
2024/03/09 00:56:58;;;;;;;16.15;10.18;;;1.70;99.90;;;;;;4934165;28;20048;-80
2024/03/09 00:59:24;;;;;;;23.80;11.35;;;1.70;99.90;;;;;;4926790;28;20030;-78
2024/03/09 01:01:50;;;;;;;17.60;10.02;;;1.60;99.90;;;;;;4922251;28;20343;-79
2024/03/09 01:04:16;;;;;;;16.85;10.43;;;1.70;99.90;;;;;;4957941;28;20030;-79
2024/03/09 01:06:42;;;;;;;19.60;10.25;;;1.70;99.90;;;;;;4955091;28;20091;-80
2024/03/09 01:09:08;;;;;;;20.17;10.90;;;1.70;99.90;;;;;;4931765;28;20033;-80
2024/03/09 01:11:35;;;;;;;16.45;10.75;;;1.70;99.90;;;;;;4911342;28;20652;-80
2024/03/09 01:14:00;;;;;;;18.08;11.82;;;1.70;99.90;;;;;;4926118;28;20034;-79
2024/03/09 01:16:26;;;;;;;18.77;10.80;;;1.70;99.90;;;;;;4958959;28;21522;-80
2024/03/09 01:18:52;;;;;;;19.92;11.30;;;1.70;99.90;;;;;;4981756;28;20156;-80
2024/03/09 01:21:19;;;;;;;18.40;11.40;;;1.70;99.90;;;;;;4933230;28;20034;-80
2024/03/09 01:23:44;;;;;;;18.92;11.05;;;1.70;99.90;;;;;;4963320;28;20097;-80
2024/03/09 01:26:11;;;;;;;18.15;10.65;;;1.60;99.90;;;;;;4963956;28;20105;-80
2024/03/09 01:28:38;;;;;;;15.70;10.77;;;1.60;99.90;;;;;;4978946;28;20678;-78
2024/03/09 01:31:04;;;;;;;18.85;11.60;;;1.60;99.90;;;;;;4964878;28;20496;-78
2024/03/09 01:33:31;;;;;;;21.60;12.65;;;1.60;99.90;;;;;;4974173;28;20554;-80
2024/03/09 01:35:58;;;;;;;20.60;11.18;;;1.60;99.90;;;;;;4961164;28;20025;-80
2024/03/09 01:38:24;;;;;;;20.48;11.10;;;1.60;99.90;;;;;;4952634;28;20054;-80
2024/03/09 01:40:49;;;;;;;21.58;11.52;;;1.50;99.90;;;;;;4959106;28;20567;-79
2024/03/09 01:43:17;;;;;;;18.98;11.13;;;1.50;99.90;;;;;;4958439;28;20026;-81
2024/03/09 01:45:46;;;;;;;17.92;11.95;;;1.50;99.90;;;;;;4963642;28;22063;-80
2024/03/09 01:48:12;;;;;;;17.08;11.13;;;1.50;99.90;;;;;;4971197;28;20030;-79
2024/03/09 01:50:39;;;;;;;20.80;11.73;;;1.50;99.90;;;;;;4961759;28;20029;-80
2024/03/09 01:53:07;;;;;;;20.00;12.40;;;1.50;99.90;;;;;;4963384;28;20025;-80
2024/03/09 01:55:36;;;;;;;18.15;10.98;;;1.50;99.90;;;;;;4966217;28;20537;-80
2024/03/09 01:58:04;;;;;;;18.65;11.85;;;1.50;99.90;;;;;;4987073;28;20684;-78
2024/03/09 02:00:34;;;;;;;24.20;12.85;;;1.40;99.90;;;;;;4976605;28;20056;-80
2024/03/09 02:03:00;;;;;;;23.90;12.00;;;1.50;99.90;;;;;;4981993;28;20053;-80
2024/03/09 02:05:26;;;;;;;22.63;12.95;;;1.40;99.90;;;;;;4954735;28;20120;-80
2024/03/09 02:07:52;;;;;;;24.25;13.00;;;1.50;99.90;;;;;;4958389;28;20080;-80
2024/03/09 02:10:18;;;;;;;20.75;12.52;;;1.40;99.90;;;;;;4965369;28;20022;-80
2024/03/09 02:12:45;;;;;;;22.52;13.38;;;1.40;99.90;;;;;;4976823;28;20157;-79
2024/03/09 02:15:16;;;;;;;18.35;11.82;;;1.40;99.90;;;;;;4978870;28;20221;-80
2024/03/09 02:17:42;;;;;;;20.73;12.88;;;1.40;99.90;;;;;;4944370;28;20034;-79
2024/03/09 02:20:10;;;;;;;22.15;12.27;;;1.40;99.90;;;;;;4964382;28;20029;-80
2024/03/09 02:22:38;;;;;;;21.60;12.13;;;1.40;99.90;;;;;;4962249;28;20652;-81
2024/03/09 02:25:05;;;;;;;20.83;11.02;;;1.40;99.90;;;;;;4956910;28;20061;-78
2024/03/09 02:27:31;;;;;;;22.58;12.20;;;1.40;99.90;;;;;;4969895;28;20013;-80
2024/03/09 02:29:57;;;;;;;22.35;12.82;;;1.40;99.90;;;;;;4978867;28;21341;-79
2024/03/09 02:32:22;;;;;;;17.98;12.10;;;1.40;99.90;;;;;;4973627;28;20041;-80
2024/03/09 02:34:48;;;;;;;26.20;12.25;;;1.40;99.90;;;;;;4958431;28;20034;-80
2024/03/09 02:37:20;;;;;;;21.02;12.80;;;1.40;99.90;;;;;;4957181;28;20030;-80
2024/03/09 02:39:46;;;;;;;19.90;12.35;;;1.40;99.90;;;;;;4978334;28;21236;-80
2024/03/09 02:42:13;;;;;;;20.65;11.95;;;1.40;99.90;;;;;;4977367;28;20030;-80
2024/03/09 02:44:40;;;;;;;21.02;12.68;;;1.30;99.90;;;;;;4965935;28;20018;-80
2024/03/09 02:47:07;;;;;;;19.88;11.73;;;1.30;99.90;;;;;;4947707;28;20034;-79
2024/03/09 02:49:32;;;;;;;18.70;12.30;;;1.30;99.90;;;;;;4962483;28;20025;-79
2024/03/09 02:51:58;;;;;;;18.33;11.50;;;1.20;99.90;;;;;;4971193;28;20799;-79
2024/03/09 02:54:24;;;;;;;19.27;12.23;;;1.20;99.90;;;;;;4962361;28;20034;-78
2024/03/09 02:56:49;;;;;;;18.80;12.05;;;1.20;99.90;;;;;;4966086;28;20072;-79
2024/03/09 02:59:16;;;;;;;18.95;11.80;;;1.20;99.90;;;;;;4960415;28;20030;-80
2024/03/09 03:01:42;;;;;;;25.67;13.27;;;1.20;99.90;;;;;;4951294;28;20124;-79
2024/03/09 03:04:07;;;;;;;23.13;12.82;;;1.20;99.90;;;;;;4952929;28;20116;-78
2024/03/09 03:06:33;;;;;;;21.17;12.85;;;1.20;99.90;;;;;;4974142;28;20057;-80
2024/03/09 03:09:05;;;;;;;21.63;13.07;;;1.20;99.90;;;;;;4973305;28;21663;-80
2024/03/09 03:11:32;;;;;;;22.38;11.93;;;1.10;99.90;;;;;;4958666;28;20493;-79
2024/03/09 03:14:01;;;;;;;20.50;11.95;;;1.10;99.90;;;;;;4942805;28;20022;-79
2024/03/09 03:16:28;;;;;;;20.45;12.10;;;1.10;99.90;;;;;;4952853;28;20806;-79
2024/03/09 03:19:00;;;;;;;21.70;13.88;;;1.10;99.90;;;;;;4974196;28;20057;-80
2024/03/09 03:21:26;;;;;;;21.80;12.80;;;1.10;99.90;;;;;;4954440;28;20034;-78
2024/03/09 03:23:53;;;;;;;20.52;12.82;;;1.10;99.90;;;;;;4961682;28;20029;-80
2024/03/09 03:26:19;;;;;;;24.48;13.27;;;1.00;99.90;;;;;;4953162;28;20543;-79
2024/03/09 03:28:49;;;;;;;20.58;13.15;;;1.00;99.90;;;;;;4944057;28;20088;-80
2024/03/09 03:31:17;;;;;;;19.85;12.55;;;1.00;99.90;;;;;;4933461;28;20025;-80
2024/03/09 03:33:43;;;;;;;21.17;12.38;;;1.00;99.90;;;;;;4971139;28;22580;-79
2024/03/09 03:36:09;;;;;;;22.92;13.63;;;1.00;99.90;;;;;;4961832;28;20109;-81
2024/03/09 03:38:35;;;;;;;22.90;13.07;;;1.00;99.90;;;;;;4959213;28;20390;-80
2024/03/09 03:41:03;;;;;;;21.60;13.07;;;0.90;99.90;;;;;;4949209;28;20030;-82
2024/03/09 03:43:28;;;;;;;20.00;12.98;;;0.90;99.90;;;;;;4938192;28;20232;-81
2024/03/09 03:45:54;;;;;;;20.90;13.65;;;0.90;99.90;;;;;;4966448;28;20125;-82
2024/03/09 03:48:19;;;;;;;21.13;13.13;;;0.90;99.90;;;;;;4977655;28;20033;-81
2024/03/09 03:50:45;;;;;;;24.48;14.30;;;0.90;99.90;;;;;;4939090;28;20123;-81
2024/03/09 03:53:12;;;;;;;20.00;12.35;;;0.90;99.90;;;;;;4962923;28;20054;-81
2024/03/09 03:55:38;;;;;;;21.73;13.63;;;0.90;99.90;;;;;;4939295;28;20060;-82
2024/03/09 03:58:06;;;;;;;22.30;12.50;;;0.90;99.90;;;;;;4965784;28;20018;-79
2024/03/09 04:00:33;;;;;;;22.35;13.68;;;0.90;99.90;;;;;;4960761;28;20061;-81
2024/03/09 04:02:59;;;;;;;29.00;14.20;;;0.90;99.90;;;;;;4967667;28;20896;-80
2024/03/09 04:05:28;;;;;;;24.33;14.70;;;0.90;99.90;;;;;;4958671;28;20026;-81
2024/03/09 04:07:54;;;;;;;21.17;13.60;;;0.80;99.90;;;;;;4949251;28;20018;-82
2024/03/09 04:10:20;;;;;;;23.05;13.68;;;0.90;99.90;;;;;;4943506;28;20559;-81
2024/03/09 04:12:47;;;;;;;22.25;14.52;;;0.90;99.90;;;;;;4954899;28;21688;-79
2024/03/09 04:15:14;;;;;;;22.55;13.80;;;0.80;99.90;;;;;;4964359;28;20026;-80
2024/03/09 04:17:42;;;;;;;23.42;14.50;;;0.80;99.90;;;;;;4947997;28;20037;-79
2024/03/09 04:20:08;;;;;;;23.27;13.98;;;0.90;99.90;;;;;;4957098;28;20030;-80
2024/03/09 04:22:34;;;;;;;23.17;13.10;;;0.80;99.90;;;;;;4926186;28;20491;-80
2024/03/09 04:25:03;;;;;;;22.13;13.45;;;0.80;99.90;;;;;;4953292;28;20029;-80
2024/03/09 04:27:29;;;;;;;21.30;13.50;;;0.80;99.90;;;;;;4939696;28;20026;-79
2024/03/09 04:29:55;;;;;;;24.98;14.77;;;0.80;99.90;;;;;;4954717;28;20045;-80
2024/03/09 04:32:27;;;;;;;25.77;14.57;;;0.70;99.90;;;;;;4954077;28;20029;-79
2024/03/09 04:34:53;;;;;;;25.88;14.32;;;0.70;99.90;;;;;;4941453;28;20053;-80
2024/03/09 04:37:25;;;;;;;23.02;15.20;;;0.70;99.90;;;;;;4927921;28;20029;-80
2024/03/09 04:39:55;;;;;;;24.20;13.77;;;0.70;99.90;;;;;;4959881;28;20065;-81
2024/03/09 04:42:25;;;;;;;25.83;14.38;;;0.70;99.90;;;;;;4952543;28;20022;-78
2024/03/09 04:44:53;;;;;;;24.25;16.38;;;0.70;99.90;;;;;;4948251;28;20022;-79
2024/03/09 04:47:20;;;;;;;23.92;13.88;;;0.70;99.90;;;;;;4958990;28;20022;-82
2024/03/09 04:49:47;;;;;;;20.13;12.93;;;0.60;99.90;;;;;;4922192;28;20026;-81
2024/03/09 04:52:13;;;;;;;24.33;14.57;;;0.60;99.90;;;;;;4926121;28;20064;-81
2024/03/09 04:54:43;;;;;;;22.73;13.93;;;0.50;99.90;;;;;;4967089;28;20034;-82
2024/03/09 04:57:24;;;;;;;28.58;15.13;;;0.50;99.90;;;;;;4955008;28;20503;-83
2024/03/09 04:59:50;;;;;;;26.50;15.10;;;0.50;99.90;;;;;;4958804;28;20083;-81
2024/03/09 05:02:16;;;;;;;25.77;13.63;;;0.50;99.90;;;;;;4955833;28;20023;-81
2024/03/09 05:04:42;;;;;;;23.10;14.27;;;0.50;99.90;;;;;;4933288;28;20018;-82
2024/03/09 05:07:09;;;;;;;25.05;15.85;;;0.50;99.90;;;;;;4936413;28;20032;-81
2024/03/09 05:09:37;;;;;;;26.05;15.13;;;0.50;99.90;;;;;;4970340;28;20513;-80
2024/03/09 05:12:03;;;;;;;21.95;14.63;;;0.40;99.90;;;;;;4952748;28;22931;-83
2024/03/09 05:14:30;;;;;;;27.67;15.63;;;0.40;99.90;;;;;;4952379;28;20105;-81
2024/03/09 05:16:56;;;;;;;26.30;14.75;;;0.40;99.90;;;;;;4949582;28;20301;-80
2024/03/09 05:19:22;;;;;;;22.95;14.80;;;0.50;99.90;;;;;;4934227;28;21751;-80
2024/03/09 05:21:48;;;;;;;26.13;16.13;;;0.40;99.90;;;;;;4978673;28;21925;-81
2024/03/09 05:24:15;;;;;;;25.38;15.13;;;0.40;99.90;;;;;;4967482;28;21310;-81
2024/03/09 05:26:42;;;;;;;23.27;15.27;;;0.40;99.90;;;;;;4942130;28;20044;-82
2024/03/09 05:29:11;;;;;;;28.35;16.48;;;0.30;99.90;;;;;;4951588;28;20060;-80
2024/03/09 05:31:36;;;;;;;27.33;15.88;;;0.30;99.90;;;;;;4920122;28;20026;-82
2024/03/09 05:34:03;;;;;;;25.38;15.63;;;0.30;99.90;;;;;;4971561;28;20030;-81
2024/03/09 05:36:29;;;;;;;26.70;15.02;;;0.30;99.90;;;;;;4953556;28;20030;-80
2024/03/09 05:38:55;;;;;;;26.60;14.65;;;0.30;99.90;;;;;;4949914;28;20089;-82
2024/03/09 05:41:21;;;;;;;24.42;14.68;;;0.30;99.90;;;;;;4950475;28;20057;-82
2024/03/09 05:43:47;;;;;;;26.02;16.17;;;0.30;99.90;;;;;;4938962;28;20485;-81
2024/03/09 05:46:13;;;;;;;31.73;16.42;;;0.20;99.90;;;;;;4928413;28;20013;-81
2024/03/09 05:48:39;;;;;;;27.48;14.32;;;0.20;99.90;;;;;;4973395;28;20185;-81
2024/03/09 05:51:09;;;;;;;23.85;16.05;;;0.30;99.90;;;;;;4949051;28;22749;-81
2024/03/09 05:53:38;;;;;;;28.70;16.58;;;0.30;99.90;;;;;;4960134;28;20030;-83
2024/03/09 05:56:06;;;;;;;26.55;15.57;;;0.30;99.90;;;;;;4936606;28;20987;-82
2024/03/09 05:58:32;;;;;;;24.15;16.23;;;0.20;99.90;;;;;;4925023;28;20029;-81
2024/03/09 06:00:58;;;;;;;29.35;16.05;;;0.20;99.90;;;;;;4968950;28;20740;-82
2024/03/09 06:03:25;;;;;;;28.55;16.38;;;0.20;99.90;;;;;;4964403;28;20029;-81
2024/03/09 06:05:51;;;;;;;26.67;15.43;;;0.20;99.90;;;;;;4960745;28;20037;-83
2024/03/09 06:08:17;;;;;;;24.10;16.77;;;0.20;99.90;;;;;;4954290;28;20027;-81
2024/03/09 06:10:43;;;;;;;27.98;16.52;;;0.20;99.90;;;;;;4948946;28;20040;-81
2024/03/09 06:13:09;;;;;;;26.27;15.15;;;0.20;99.90;;;;;;4945259;28;20025;-81
2024/03/09 06:15:34;;;;;;;28.23;16.25;;;0.20;99.90;;;;;;4980303;28;20603;-82
2024/03/09 06:18:01;;;;;;;25.38;16.65;;;0.20;99.90;;;;;;4981541;28;20025;-81
2024/03/09 06:20:27;;;;;;;31.30;17.52;;;0.20;99.90;;;;;;4953294;28;20854;-82
2024/03/09 06:22:54;;;;;;;26.83;17.45;;;0.20;99.90;;;;;;4975894;28;20049;-82
2024/03/09 06:25:23;;;;;;;28.88;16.85;;;0.20;99.90;;;;;;4973306;28;20041;-81
2024/03/09 06:27:53;;;;;;;24.27;15.75;;;0.20;99.90;;;;;;5006102;28;20037;-82
2024/03/09 06:30:19;;;;;;;26.42;17.40;;;0.20;99.90;;;;;;4986073;28;20040;-82
2024/03/09 06:32:49;;;;;;;26.27;16.08;;;0.20;99.90;;;;;;4972850;28;20030;-81
2024/03/09 06:35:36;;;;;;;25.00;16.35;;;0.20;99.90;;;;;;4980676;28;20409;-82
2024/03/09 06:38:07;;;;;;;28.65;17.23;;;0.30;99.90;;;;;;4976271;28;20105;-81
2024/03/09 06:40:44;;;;;;;28.65;17.83;;;0.20;99.90;;;;;;4977705;28;20042;-82
2024/03/09 06:43:11;;;;;;;27.25;16.95;;;0.30;99.90;;;;;;4976632;28;20100;-80
2024/03/09 06:45:41;;;;;;;29.30;16.63;;;0.30;99.90;;;;;;4980891;28;20026;-81
2024/03/09 06:48:07;;;;;;;32.92;18.05;;;0.30;99.90;;;;;;4983958;28;20030;-81
2024/03/09 06:50:35;;;;;;;29.17;17.17;;;0.40;99.90;;;;;;4983773;28;20030;-82
2024/03/09 06:53:01;;;;;;;27.27;17.38;;;0.40;99.90;;;;;;4980480;28;20029;-82
2024/03/09 06:55:29;;;;;;;27.55;17.23;;;0.50;99.90;;;;;;4973763;28;20088;-82
2024/03/09 06:58:01;;;;;;;34.13;18.33;;;0.50;99.90;;;;;;4999241;28;20052;-82
2024/03/09 07:00:29;;;;;;;26.85;17.40;;;0.50;99.90;;;;;;4976517;28;20034;-80
2024/03/09 07:02:58;;;;;;;31.88;18.48;;;0.50;99.90;;;;;;4995504;28;20053;-83
2024/03/09 07:05:26;;;;;;;29.60;16.83;;;0.60;99.90;;;;;;4978418;28;20401;-83
2024/03/09 07:07:52;;;;;;;37.10;19.08;;;0.60;99.90;;;;;;4963768;28;20026;-82
2024/03/09 07:10:17;;;;;;;31.40;19.17;;;0.70;99.90;;;;;;4964349;28;20052;-83
2024/03/09 07:12:43;;;;;;;28.98;18.55;;;0.70;99.90;;;;;;4986919;28;20045;-81
2024/03/09 07:15:17;;;;;;;34.15;18.27;;;0.80;99.90;;;;;;4977386;28;20052;-83
2024/03/09 07:17:51;;;;;;;27.65;17.58;;;0.90;99.90;;;;;;4973671;28;20075;-80
2024/03/09 07:20:17;;;;;;;30.92;17.85;;;1.00;99.90;;;;;;4979620;28;20026;-81
2024/03/09 07:22:45;;;;;;;30.10;18.48;;;1.00;99.90;;;;;;4963690;28;20041;-82
2024/03/09 07:25:15;;;;;;;28.95;16.83;;;1.00;99.90;;;;;;4981425;28;20014;-80
2024/03/09 07:27:42;;;;;;;35.17;19.42;;;1.10;99.90;;;;;;4984860;28;20170;-83
2024/03/09 07:30:14;;;;;;;30.38;18.48;;;1.20;99.90;;;;;;4987788;28;20072;-82
2024/03/09 07:32:43;;;;;;;33.55;18.63;;;1.20;99.90;;;;;;4996602;28;20034;-80
2024/03/09 07:35:16;;;;;;;29.73;17.65;;;1.30;99.90;;;;;;5001489;28;20040;-83
2024/03/09 07:37:53;;;;;;;28.77;16.70;;;1.30;99.90;;;;;;5001758;28;20107;-83
2024/03/09 07:40:24;;;;;;;32.60;18.00;;;1.40;99.90;;;;;;4982323;28;20030;-85
2024/03/09 07:42:53;;;;;;;33.08;18.15;;;1.50;99.90;;;;;;4982158;28;20088;-81
2024/03/09 07:45:19;;;;;;;31.08;18.67;;;1.60;99.90;;;;;;4997444;28;20030;-82
2024/03/09 07:47:46;;;;;;;28.95;17.13;;;1.70;99.90;;;;;;4990147;28;20446;-84
2024/03/09 07:50:15;;;;;;;29.38;18.13;;;1.80;99.90;;;;;;4999920;28;20028;-82
2024/03/09 07:52:52;;;;;;;27.42;18.58;;;1.90;99.90;;;;;;4988426;28;20029;-82
2024/03/09 07:55:20;;;;;;;28.15;16.45;;;2.00;99.90;;;;;;4980456;28;20536;-83
2024/03/09 07:57:46;;;;;;;32.67;18.35;;;2.10;99.90;;;;;;4975570;28;20033;-83
2024/03/09 08:00:17;;;;;;;31.77;16.73;;;2.20;99.90;;;;;;5004773;28;20542;-82
2024/03/09 08:02:46;;;;;;;28.90;16.58;;;2.30;99.90;;;;;;4989268;28;20021;-83
2024/03/09 08:05:14;;;;;;;29.20;16.33;;;2.40;99.90;;;;;;4995555;28;20028;-82
2024/03/09 08:07:41;;;;;;;29.88;17.25;;;2.40;99.90;;;;;;4995887;28;20072;-81
2024/03/09 08:10:07;;;;;;;31.40;17.98;;;2.60;99.90;;;;;;4983024;28;20036;-82
2024/03/09 08:12:36;;;;;;;26.88;18.13;;;2.70;99.90;;;;;;4974821;28;20034;-81
2024/03/09 08:15:04;;;;;;;28.58;17.38;;;2.80;99.90;;;;;;5010576;28;20038;-83
2024/03/09 08:17:31;;;;;;;28.42;17.25;;;2.90;99.90;;;;;;4997886;28;20110;-82
2024/03/09 08:19:59;;;;;;;30.05;17.40;;;3.00;99.90;;;;;;4997533;28;20034;-83
2024/03/09 08:22:25;;;;;;;28.35;17.75;;;3.10;99.90;;;;;;4992430;28;20030;-84
2024/03/09 08:24:51;;;;;;;26.42;16.73;;;3.30;99.90;;;;;;4975442;28;21219;-81
2024/03/09 08:27:17;;;;;;;25.63;15.77;;;3.40;99.90;;;;;;5012282;28;20021;-83
2024/03/09 08:29:44;;;;;;;29.20;16.52;;;3.60;99.90;;;;;;4986769;28;20033;-80
2024/03/09 08:32:10;;;;;;;30.15;16.70;;;3.70;99.90;;;;;;4990945;28;20029;-82
2024/03/09 08:34:36;;;;;;;25.40;16.83;;;3.80;99.90;;;;;;4992613;28;20112;-82
2024/03/09 08:37:08;;;;;;;24.85;16.17;;;4.00;99.90;;;;;;4975881;28;20025;-83
2024/03/09 08:39:34;;;;;;;26.27;16.67;;;4.20;99.90;;;;;;4973660;28;20046;-80
2024/03/09 08:42:01;;;;;;;23.75;15.95;;;4.30;99.90;;;;;;5001955;28;20731;-83
2024/03/09 08:44:27;;;;;;;29.17;16.75;;;4.50;99.90;;;;;;4994072;28;20041;-83
2024/03/09 08:46:53;;;;;;;25.42;16.85;;;4.60;99.90;;;;;;4975204;28;20065;-82
2024/03/09 08:49:20;;;;;;;23.92;16.50;;;4.80;99.90;;;;;;4980570;28;20045;-82
2024/03/09 08:51:46;;;;;;;23.77;15.38;;;4.90;99.90;;;;;;4970287;28;21960;-80
2024/03/09 08:54:12;;;;;;;25.88;15.77;;;5.10;99.90;;;;;;4996262;28;20033;-80
2024/03/09 08:56:38;;;;;;;25.38;15.93;;;5.20;99.90;;;;;;4991851;28;20024;-79
2024/03/09 08:59:03;;;;;;;31.17;17.90;;;5.30;99.90;;;;;;4993927;28;20086;-79
2024/03/09 09:01:32;;;;;;;23.70;15.48;;;5.40;99.90;;;;;;4993812;28;20055;-84
2024/03/09 09:04:04;;;;;;;20.73;14.75;;;5.60;99.90;;;;;;4967082;28;20037;-80
2024/03/09 09:06:33;;;;;;;22.42;14.75;;;5.70;99.90;;;;;;4979453;28;20120;-80
2024/03/09 09:08:58;;;;;;;24.95;15.50;;;5.80;99.90;;;;;;4985926;28;20057;-79
2024/03/09 09:11:26;;;;;;;22.98;14.60;;;5.90;99.90;;;;;;4989964;28;21591;-80
2024/03/09 09:13:52;;;;;;;23.55;15.75;;;6.00;99.90;;;;;;4973552;28;20022;-82
2024/03/09 09:16:18;;;;;;;25.83;15.27;;;6.20;99.90;;;;;;5002386;28;20030;-80
2024/03/09 09:18:47;;;;;;;24.50;16.02;;;6.30;99.90;;;;;;4990190;28;20068;-80
2024/03/09 09:21:14;;;;;;;25.35;15.45;;;6.40;99.90;;;;;;5002995;28;20172;-81
2024/03/09 09:23:40;;;;;;;24.42;14.98;;;6.50;99.90;;;;;;5000232;28;20033;-79
2024/03/09 09:26:06;;;;;;;20.30;13.43;;;6.70;99.90;;;;;;4992514;28;20033;-82
2024/03/09 09:28:32;;;;;;;19.48;14.65;;;6.80;99.90;;;;;;5005300;28;20600;-82
2024/03/09 09:30:58;;;;;;;24.92;15.18;;;6.90;99.90;;;;;;4988191;28;20037;-81
2024/03/09 09:33:23;;;;;;;24.23;14.63;;;7.10;99.90;;;;;;4990302;28;20030;-80
2024/03/09 09:35:51;;;;;;;21.75;13.52;;;7.20;99.90;;;;;;4985434;28;20109;-79
2024/03/09 09:38:17;;;;;;;24.73;15.27;;;7.20;99.90;;;;;;5016010;28;20060;-82
2024/03/09 09:40:47;;;;;;;19.75;13.55;;;7.20;99.90;;;;;;5006616;28;20034;-82
2024/03/09 09:43:14;;;;;;;22.67;14.32;;;7.30;99.90;;;;;;5000632;28;20079;-80
2024/03/09 09:45:45;;;;;;;22.92;13.55;;;7.20;99.90;;;;;;4995310;28;20025;-80
2024/03/09 09:48:11;;;;;;;21.75;12.65;;;7.00;99.90;;;;;;5005408;28;20060;-81
2024/03/09 09:50:36;;;;;;;26.17;14.13;;;7.10;99.90;;;;;;5008579;28;20609;-80
2024/03/09 09:53:07;;;;;;;20.90;14.00;;;7.20;99.90;;;;;;4999858;28;20293;-81
2024/03/09 09:55:35;;;;;;;25.67;13.93;;;7.20;99.90;;;;;;5015626;28;20068;-84
2024/03/09 09:58:01;;;;;;;23.50;13.90;;;7.20;99.90;;;;;;5012980;28;20025;-82
2024/03/09 10:00:27;;;;;;;20.33;12.90;;;7.30;99.90;;;;;;5007466;28;20689;-81
2024/03/09 10:02:58;;;;;;;20.92;13.65;;;7.30;99.90;;;;;;4987198;28;20033;-80
2024/03/09 10:05:26;;;;;;;25.08;14.73;;;7.40;99.90;;;;;;5005115;28;21829;-82
2024/03/09 10:08:01;;;;;;;21.38;14.55;;;7.40;99.90;;;;;;5019141;28;20022;-83
2024/03/09 10:10:29;;;;;;;19.63;13.60;;;7.40;99.90;;;;;;5009109;28;20045;-82
2024/03/09 10:13:11;;;;;;;24.05;14.90;;;7.40;99.90;;;;;;5008708;28;20030;-81
2024/03/09 10:15:43;;;;;;;24.13;14.43;;;7.50;99.90;;;;;;5008522;28;20030;-81
2024/03/09 10:18:09;;;;;;;20.38;13.77;;;7.60;99.90;;;;;;5011539;28;20668;-82
2024/03/09 10:20:36;;;;;;;16.40;12.48;;;7.70;99.90;;;;;;5010848;28;20125;-81
2024/03/09 10:23:13;;;;;;;20.27;13.05;;;7.80;99.90;;;;;;5017007;28;20047;-83
2024/03/09 10:25:40;;;;;;;26.20;14.75;;;7.80;99.90;;;;;;5012304;28;20043;-82
2024/03/09 10:28:10;;;;;;;20.85;13.32;;;7.80;99.90;;;;;;5003501;28;20026;-82
2024/03/09 10:30:40;;;;;;;23.67;13.77;;;7.80;99.90;;;;;;5007989;28;20521;-81
2024/03/09 10:33:13;;;;;;;20.55;13.35;;;7.90;99.90;;;;;;4985429;28;20038;-83
2024/03/09 10:35:46;;;;;;;21.30;13.52;;;8.00;99.90;;;;;;5006891;28;20034;-79
2024/03/09 10:38:12;;;;;;;22.60;13.52;;;8.10;99.90;;;;;;5013176;28;20033;-84
2024/03/09 10:40:39;;;;;;;19.05;13.07;;;8.20;99.90;;;;;;5019640;28;20022;-81
2024/03/09 10:43:11;;;;;;;21.48;13.20;;;8.30;99.90;;;;;;5013768;28;20022;-81
2024/03/09 10:45:38;;;;;;;16.52;11.38;;;8.30;99.90;;;;;;5011584;28;20616;-82
2024/03/09 10:48:09;;;;;;;17.38;12.75;;;8.40;99.90;;;;;;5004388;28;20018;-83
2024/03/09 10:50:43;;;;;;;19.63;12.85;;;8.50;99.90;;;;;;5003957;28;20026;-82
2024/03/09 10:54:06;;;;;;;21.17;13.02;;;8.50;99.90;;;;;;5002373;28;20029;-80
2024/03/09 10:56:39;;;;;;;17.75;11.45;;;8.50;99.90;;;;;;4963195;28;20044;-80
2024/03/09 10:59:09;;;;;;;18.77;13.05;;;8.50;99.90;;;;;;5003111;28;20049;-79
2024/03/09 11:01:35;;;;;;;19.33;11.55;;;8.60;99.90;;;;;;5012265;28;20160;-77
2024/03/09 11:04:04;;;;;;;18.52;11.70;;;8.60;99.90;;;;;;5007285;28;20026;-80
2024/03/09 11:06:30;;;;;;;18.90;12.05;;;8.60;99.90;;;;;;5006470;28;20052;-79
2024/03/09 11:08:57;;;;;;;17.67;12.18;;;8.60;99.90;;;;;;4995295;28;20026;-80
2024/03/09 11:11:26;;;;;;;18.17;12.20;;;8.50;99.90;;;;;;4996127;28;20030;-80
2024/03/09 11:13:53;;;;;;;17.50;11.63;;;8.50;99.90;;;;;;5003413;28;20025;-79
2024/03/09 11:16:24;;;;;;;18.02;12.55;;;8.50;99.90;;;;;;5009463;28;20595;-81
2024/03/09 11:18:56;;;;;;;19.83;12.60;;;8.50;99.90;;;;;;5006210;28;20033;-81
2024/03/09 11:21:34;;;;;;;17.33;12.00;;;8.60;99.90;;;;;;5008127;28;20508;-81
2024/03/09 11:24:12;;;;;;;17.92;12.15;;;8.70;99.90;;;;;;5000887;28;20045;-81
2024/03/09 11:26:45;;;;;;;16.27;12.68;;;8.70;99.90;;;;;;5001833;28;20033;-81
2024/03/09 11:29:11;;;;;;;16.60;12.07;;;8.70;99.90;;;;;;4999143;28;20093;-81
2024/03/09 11:31:41;;;;;;;19.83;11.88;;;8.70;99.90;;;;;;5010895;28;20216;-80
2024/03/09 11:34:07;;;;;;;18.92;12.15;;;8.70;99.90;;;;;;5008224;28;20018;-81
2024/03/09 11:36:40;;;;;;;17.45;11.82;;;8.60;99.90;;;;;;5008106;28;20026;-81
2024/03/09 11:39:16;;;;;;;18.00;11.02;;;8.60;99.90;;;;;;4998931;28;20025;-81
2024/03/09 11:41:46;;;;;;;;;;;8.60;99.90;;;;;;4994205;28;20585;-82
2024/03/09 11:44:15;;;;;;;14.80;9.95;;;8.60;99.90;;;;;;4992644;28;20439;-81
2024/03/09 11:46:41;;;;;;;17.08;10.80;;;8.50;99.90;;;;;;5008756;28;20346;-81
2024/03/09 11:49:07;;;;;;;18.13;11.32;;;8.50;99.90;;;;;;5000220;28;20034;-80
2024/03/09 11:51:33;;;;;;;14.35;9.45;;;8.60;99.90;;;;;;5003355;28;20053;-82
2024/03/09 11:54:03;;;;;;;20.45;10.52;;;8.60;99.90;;;;;;4992577;28;20030;-81
2024/03/09 11:56:33;;;;;;;17.23;10.55;;;8.70;99.90;;;;;;4984873;28;21100;-81
2024/03/09 11:59:00;;;;;;;15.40;10.05;;;8.70;99.90;;;;;;5003348;28;20105;-81
2024/03/09 12:01:26;;;;;;;12.95;9.57;;;8.70;99.90;;;;;;4987621;28;20038;-80
2024/03/09 12:03:53;;;;;;;14.05;9.50;;;8.70;99.90;;;;;;4999790;28;20112;-81
2024/03/09 12:06:21;;;;;;;14.32;10.32;;;8.80;99.90;;;;;;4997860;28;20029;-81
2024/03/09 12:08:49;;;;;;;13.93;9.32;;;8.80;99.90;;;;;;4992199;28;20017;-80
2024/03/09 12:11:18;;;;;;;12.45;9.38;;;8.90;99.90;;;;;;4995735;28;20033;-81
2024/03/09 12:13:46;;;;;;;14.20;9.98;;;8.80;99.90;;;;;;5008840;28;20742;-81
2024/03/09 12:16:13;;;;;;;16.33;9.70;;;8.80;99.90;;;;;;4993321;28;20109;-81
2024/03/09 12:18:41;;;;;;;14.68;9.55;;;8.80;99.90;;;;;;4994805;28;20049;-78
2024/03/09 12:21:08;;;;;;;14.50;9.90;;;8.70;99.90;;;;;;4998044;28;20018;-82
2024/03/09 12:23:35;;;;;;;15.93;10.40;;;8.60;99.90;;;;;;4988761;28;20131;-81
2024/03/09 12:26:01;;;;;;;16.85;11.43;;;8.70;99.90;;;;;;4998896;28;20025;-82
2024/03/09 12:28:27;;;;;;;15.68;9.30;;;8.80;99.90;;;;;;4988915;28;20041;-81
2024/03/09 12:30:55;;;;;;;15.82;11.40;;;8.80;99.90;;;;;;4996545;28;20033;-81
2024/03/09 12:33:21;;;;;;;16.58;11.05;;;8.90;99.90;;;;;;4994593;28;20030;-83
2024/03/09 12:35:47;;;;;;;15.00;10.20;;;8.90;99.90;;;;;;4984305;28;20397;-80
2024/03/09 12:38:14;;;;;;;16.38;10.63;;;8.80;99.90;;;;;;4987207;28;20018;-81
2024/03/09 12:40:45;;;;;;;15.93;10.27;;;8.80;99.90;;;;;;4996107;28;20028;-79